Time;durP1;ratioP1;P1;durP2;ratioP2;P2;SDS_P1;SDS_P2;PMS_P1;PMS_P2;Temp;Humidity;BMP_temperature;BMP_pressure;BME280_temperature;BME280_humidity;BME280_pressure;Samples;Min_cycle;Max_cycle;Signal;HPM_P1;HPM_P2
2022/10/13 00:01:13;;;;;;;25.20;15.23;;;;;;;14.27;63.34;99286.25;6949564;28;20231;-79
2022/10/13 00:04:34;;;;;;;25.50;15.10;;;;;;;14.51;62.49;99285.50;6949586;28;20722;-79
2022/10/13 00:07:56;;;;;;;23.83;14.97;;;;;;;14.40;62.31;99297.84;6947230;28;20200;-79
2022/10/13 00:11:20;;;;;;;25.17;15.33;;;;;;;14.19;63.10;99300.06;6949778;28;20328;-79
2022/10/13 00:14:42;;;;;;;22.90;14.37;;;;;;;14.30;63.00;99300.22;6949258;28;20664;-80
2022/10/13 00:18:03;;;;;;;21.87;15.20;;;;;;;14.48;62.61;99305.75;6948591;28;20341;-80
2022/10/13 00:21:26;;;;;;;20.00;14.37;;;;;;;14.65;61.43;99306.91;6949449;28;20357;-79
2022/10/13 00:24:51;;;;;;;17.00;13.50;;;;;;;14.36;62.49;99322.94;6949357;28;20295;-80
2022/10/13 00:28:14;;;;;;;23.83;14.53;;;;;;;14.32;61.89;99308.97;6948117;28;20216;-80
2022/10/13 00:31:36;;;;;;;19.33;13.77;;;;;;;14.26;62.32;99290.84;6941466;28;20273;-79
2022/10/13 00:34:57;;;;;;;30.37;15.83;;;;;;;14.02;62.66;99312.41;6921035;28;20290;-79
2022/10/13 00:38:20;;;;;;;29.13;15.57;;;;;;;14.15;63.39;99312.38;6920380;28;20218;-80
2022/10/13 00:41:42;;;;;;;24.50;16.83;;;;;;;13.88;64.94;99316.22;6921512;28;20718;-79
2022/10/13 00:45:07;;;;;;;21.23;15.43;;;;;;;14.08;64.45;99314.25;6921776;28;20296;-79
2022/10/13 00:48:30;;;;;;;24.23;15.77;;;;;;;14.46;63.93;99309.72;6920783;28;20191;-79
2022/10/13 00:51:52;;;;;;;22.53;15.00;;;;;;;14.16;64.73;99317.56;6921264;28;20765;-79
2022/10/13 00:55:18;;;;;;;22.30;15.53;;;;;;;14.41;63.71;99320.41;6920973;28;20252;-80
2022/10/13 00:58:40;;;;;;;25.30;15.47;;;;;;;14.76;63.15;99325.19;6921242;28;20233;-80
2022/10/13 01:02:03;;;;;;;20.30;15.53;;;;;;;14.58;63.01;99311.50;6920777;28;20227;-79
2022/10/13 01:05:25;;;;;;;23.40;14.93;;;;;;;14.39;62.87;99243.84;6924916;28;20212;-79
2022/10/13 01:08:46;;;;;;;24.87;15.10;;;;;;;14.78;63.00;99312.25;6922940;28;20370;-79
2022/10/13 01:12:14;;;;;;;22.70;15.43;;;;;;;14.36;63.22;99309.38;6921321;28;20665;-79
2022/10/13 01:15:40;;;;;;;32.10;16.73;;;;;;;13.62;65.92;99322.53;6922356;28;20282;-79
2022/10/13 01:19:15;;;;;;;25.97;16.33;;;;;;;13.95;66.01;99311.59;6920342;28;20250;-79
2022/10/13 01:22:47;;;;;;;25.93;15.37;;;;;;;14.27;64.28;99297.13;6921106;28;20654;-79
2022/10/13 01:26:33;;;;;;;27.77;16.07;;;;;;;13.91;66.42;99322.03;6925985;28;20191;-80
2022/10/13 01:30:09;;;;;;;26.93;16.90;;;;;;;14.14;65.63;99280.84;6941283;28;20231;-80
2022/10/13 01:33:35;;;;;;;22.50;14.93;;;;;;;14.66;64.29;99307.72;6928978;28;20246;-79
2022/10/13 01:37:01;;;;;;;20.90;15.33;;;;;;;14.71;63.73;99288.91;6920081;28;20291;-79
2022/10/13 01:40:25;;;;;;;25.70;15.47;;;;;;;14.29;64.51;99298.53;6918956;28;20366;-79
2022/10/13 01:43:51;;;;;;;22.63;15.40;;;;;;;13.69;67.07;99298.16;6920299;28;20207;-79
2022/10/13 01:47:15;;;;;;;19.77;15.00;;;;;;;14.37;65.35;99276.59;6919802;28;20283;-79
2022/10/13 01:50:38;;;;;;;25.33;15.00;;;;;;;14.53;64.56;99270.66;6919250;28;20720;-79
2022/10/13 01:53:59;;;;;;;24.50;14.73;;;;;;;14.38;65.00;99247.56;6919699;28;20327;-79
2022/10/13 01:57:30;;;;;;;21.80;14.60;;;;;;;14.42;64.46;99271.34;6918852;28;20208;-80
2022/10/13 02:01:00;;;;;;;23.70;15.23;;;;;;;14.62;65.01;99276.66;6918852;28;20716;-79
2022/10/13 02:04:31;;;;;;;25.57;15.37;;;;;;;14.85;64.03;99274.16;6919349;28;20271;-79
2022/10/13 02:07:56;;;;;;;20.50;14.43;;;;;;;14.85;63.91;99264.16;6917729;28;20786;-79
2022/10/13 02:11:19;;;;;;;21.77;15.17;;;;;;;14.76;63.86;99238.31;6919537;28;20231;-79
2022/10/13 02:14:42;;;;;;;21.10;14.53;;;;;;;15.04;63.44;99274.00;6919226;28;20200;-79
2022/10/13 02:18:04;;;;;;;22.37;15.33;;;;;;;14.76;62.81;99270.88;6918314;28;20211;-80
2022/10/13 02:21:28;;;;;;;20.70;14.30;;;;;;;14.72;63.79;99266.13;6919192;28;20778;-79
2022/10/13 02:24:49;;;;;;;23.73;15.77;;;;;;;14.79;63.67;99266.91;6919288;28;20215;-79
2022/10/13 02:28:13;;;;;;;15.80;13.13;;;;;;;15.34;62.25;99275.00;6918355;28;20294;-80
2022/10/13 02:31:34;;;;;;;17.40;13.47;;;;;;;14.75;63.29;99260.28;6919756;28;20649;-79
2022/10/13 02:34:56;;;;;;;18.13;14.33;;;;;;;15.01;63.42;99287.19;6919878;28;20265;-79
2022/10/13 02:38:19;;;;;;;17.40;13.87;;;;;;;14.20;65.50;99266.47;6918356;28;20271;-79
2022/10/13 02:41:40;;;;;;;20.97;14.67;;;;;;;14.88;64.43;99271.88;6917934;28;20591;-79
2022/10/13 02:45:02;;;;;;;20.37;14.37;;;;;;;14.84;64.30;99283.38;6917947;28;20265;-79
2022/10/13 02:48:23;;;;;;;16.97;14.13;;;;;;;14.95;64.10;99285.38;6917260;28;20301;-79
2022/10/13 02:51:45;;;;;;;22.27;13.73;;;;;;;15.12;64.05;99271.03;6919692;28;20742;-80
2022/10/13 02:55:09;;;;;;;16.53;13.73;;;;;;;15.44;62.68;99274.50;6923963;28;20218;-79
2022/10/13 02:58:30;;;;;;;24.97;15.20;;;;;;;15.12;64.21;99262.03;6922968;28;20243;-80
2022/10/13 03:01:52;;;;;;;22.50;15.00;;;;;;;15.34;64.15;99274.19;6923305;28;20254;-79
2022/10/13 03:05:13;;;;;;;23.23;14.67;;;;;;;15.44;64.31;99277.22;6923434;28;20337;-79
2022/10/13 03:08:35;;;;;;;18.50;14.43;;;;;;;15.29;64.20;99261.22;6920147;28;20227;-79
2022/10/13 03:11:58;;;;;;;20.27;15.30;;;;;;;15.34;63.88;99268.75;6921902;28;20288;-79
2022/10/13 03:15:20;;;;;;;26.17;15.10;;;;;;;15.44;64.07;99278.06;6923525;28;20207;-79
2022/10/13 03:18:41;;;;;;;18.57;14.13;;;;;;;15.53;63.66;99268.56;6922303;28;20288;-80
2022/10/13 03:22:03;;;;;;;17.83;13.70;;;;;;;15.51;63.54;99246.19;6923027;28;20208;-79
2022/10/13 03:25:24;;;;;;;22.00;14.60;;;;;;;15.65;63.34;99264.03;6922845;28;20257;-80
2022/10/13 03:28:50;;;;;;;18.63;14.80;;;;;;;15.51;63.44;99258.97;6921367;28;20361;-79
2022/10/13 03:32:11;;;;;;;18.00;14.30;;;;;;;15.33;63.98;99213.56;6921722;28;20208;-79
2022/10/13 03:35:33;;;;;;;20.20;14.93;;;;;;;15.64;63.55;99258.81;6921571;28;20247;-80
2022/10/13 03:38:54;;;;;;;17.67;13.23;;;;;;;15.89;62.89;99246.81;6921217;28;20319;-80
2022/10/13 03:42:16;;;;;;;18.83;14.13;;;;;;;15.96;62.44;99249.44;6921577;28;20214;-80
2022/10/13 03:45:39;;;;;;;17.47;13.83;;;;;;;15.80;62.66;99239.19;6921747;28;20620;-80
2022/10/13 03:49:00;;;;;;;17.57;14.93;;;;;;;15.76;62.62;99246.13;6921139;28;20228;-79
2022/10/13 03:52:22;;;;;;;16.00;13.40;;;;;;;15.70;62.88;99231.53;6920995;28;20233;-80
2022/10/13 03:55:48;;;;;;;15.60;13.03;;;;;;;15.61;63.29;99218.47;6921238;28;20203;-79
2022/10/13 03:59:11;;;;;;;15.40;13.57;;;;;;;15.77;63.02;99220.59;6920917;28;20325;-80
2022/10/13 04:02:34;;;;;;;14.83;13.07;;;;;;;15.82;62.41;99216.13;6929475;28;20249;-80
2022/10/13 04:06:00;;;;;;;16.50;13.80;;;;;;;15.39;63.70;99228.97;6946620;28;20268;-79
2022/10/13 04:09:21;;;;;;;14.63;12.93;;;;;;;15.47;63.99;99225.97;6946016;28;20358;-79
2022/10/13 04:12:43;;;;;;;20.37;15.23;;;;;;;15.72;63.71;99231.31;6947894;28;20212;-79
2022/10/13 04:16:06;;;;;;;19.60;13.83;;;;;;;15.74;63.43;99224.59;6947099;28;20211;-80
2022/10/13 04:19:29;;;;;;;17.10;13.37;;;;;;;15.99;62.88;99233.47;6946335;28;20269;-79
2022/10/13 04:22:50;;;;;;;20.70;13.10;;;;;;;15.37;63.72;99239.25;6947062;28;20218;-79
2022/10/13 04:26:16;;;;;;;17.20;13.93;;;;;;;15.62;63.98;99231.84;6946913;28;20195;-79
2022/10/13 04:29:37;;;;;;;19.73;14.47;;;;;;;16.12;62.81;99235.19;6946292;28;20222;-79
2022/10/13 04:32:59;;;;;;;23.77;14.30;;;;;;;16.14;62.39;99231.19;6940558;28;20228;-79
2022/10/13 04:36:22;;;;;;;19.70;14.97;;;;;;;16.26;62.39;99210.31;6944177;28;20655;-79
2022/10/13 04:39:43;;;;;;;16.80;14.13;;;;;;;16.21;62.31;99222.94;6947102;28;20361;-79
2022/10/13 04:43:05;;;;;;;18.20;13.20;;;;;;;15.80;63.31;99223.69;6946349;28;20353;-79
2022/10/13 04:46:27;;;;;;;19.47;13.77;;;;;;;15.84;63.10;99227.63;6946384;28;20767;-79
2022/10/13 04:49:48;;;;;;;18.37;13.60;;;;;;;15.69;63.28;99232.59;6939707;28;20713;-79
2022/10/13 04:53:11;;;;;;;19.27;14.33;;;;;;;15.78;62.58;99187.75;6951969;28;20362;-79
2022/10/13 04:56:33;;;;;;;17.63;13.77;;;;;;;15.87;62.86;99196.44;6950856;28;20253;-78
2022/10/13 04:59:54;;;;;;;21.37;14.30;;;;;;;16.10;61.82;99219.09;6961503;28;20223;-80
2022/10/13 05:03:16;;;;;;;19.50;13.77;;;;;;;16.22;62.35;99219.97;6958052;28;20215;-80
2022/10/13 05:06:39;;;;;;;20.73;15.43;;;;;;;16.12;61.99;99219.72;6946846;28;20212;-81
2022/10/13 05:10:02;;;;;;;23.30;16.57;;;;;;;16.02;62.80;99210.44;6944129;28;20227;-81
2022/10/13 05:13:24;;;;;;;18.07;14.43;;;;;;;16.16;62.60;99210.03;6945041;28;20309;-81
2022/10/13 05:16:46;;;;;;;23.23;15.10;;;;;;;15.96;62.08;99182.28;6945430;28;20205;-80
2022/10/13 05:20:09;;;;;;;29.00;16.30;;;;;;;16.02;62.76;99196.84;6945344;28;20297;-79
2022/10/13 05:23:31;;;;;;;23.40;16.90;;;;;;;16.09;62.79;99203.00;6945472;28;20199;-79
2022/10/13 05:26:53;;;;;;;22.03;17.47;;;;;;;15.94;62.93;99195.28;6947611;28;20289;-78
2022/10/13 05:30:15;;;;;;;22.90;16.73;;;;;;;15.42;64.57;99228.53;6948079;28;20296;-79
2022/10/13 05:33:37;;;;;;;32.17;17.30;;;;;;;15.82;64.54;99201.72;6947720;28;20361;-79
2022/10/13 05:36:59;;;;;;;28.87;17.60;;;;;;;16.04;63.08;99192.81;6948494;28;20285;-79
2022/10/13 05:40:20;;;;;;;23.93;16.40;;;;;;;16.30;62.63;99227.00;6947742;28;20364;-79
2022/10/13 05:43:43;;;;;;;26.97;18.90;;;;;;;16.36;62.25;99226.06;6946717;28;20570;-79
2022/10/13 05:47:05;;;;;;;23.17;16.93;;;;;;;16.19;62.18;99198.69;6947950;28;20349;-81
2022/10/13 05:50:28;;;;;;;19.73;15.23;;;;;;;16.03;62.50;99225.69;6945386;28;20317;-79
2022/10/13 05:53:52;;;;;;;24.33;15.90;;;;;;;16.00;62.92;99231.59;6936282;28;20253;-78
2022/10/13 05:57:17;;;;;;;25.63;15.90;;;;;;;16.17;62.74;99225.28;6938773;28;20211;-78
2022/10/13 06:00:40;;;;;;;17.67;13.53;;;;;;;15.66;62.71;99181.44;6944126;28;20230;-79
2022/10/13 06:04:04;;;;;;;22.57;16.03;;;;;;;15.99;62.66;99224.50;6942381;28;20341;-79
2022/10/13 06:07:28;;;;;;;20.27;15.07;;;;;;;16.33;62.33;99230.09;6945374;28;20426;-78
2022/10/13 06:10:50;;;;;;;23.97;15.77;;;;;;;16.17;62.23;99224.47;6952947;28;20224;-78
2022/10/13 06:14:12;;;;;;;25.17;15.23;;;;;;;16.41;61.74;99210.75;6963927;28;20227;-78
2022/10/13 06:17:37;;;;;;;18.77;15.10;;;;;;;16.37;62.46;99201.34;6947028;28;20260;-79
2022/10/13 06:20:58;;;;;;;19.50;14.33;;;;;;;16.11;62.36;99165.53;6942158;28;20235;-81
2022/10/13 06:24:20;;;;;;;20.57;15.90;;;;;;;16.47;62.58;99196.22;6919982;28;20217;-79
2022/10/13 06:27:42;;;;;;;20.87;14.37;;;;;;;16.77;61.48;99190.69;6922141;28;20367;-79
2022/10/13 06:31:05;;;;;;;20.60;14.40;;;;;;;16.73;61.58;99197.66;6925072;28;20324;-79
2022/10/13 06:34:28;;;;;;;20.47;15.57;;;;;;;16.63;63.20;99213.75;6924658;28;20235;-79
2022/10/13 06:37:49;;;;;;;20.77;15.73;;;;;;;16.93;62.13;99223.50;6927221;28;20205;-79
2022/10/13 06:41:13;;;;;;;20.80;15.20;;;;;;;16.98;62.29;99215.44;6937147;28;20222;-79
2022/10/13 06:44:34;;;;;;;19.10;15.10;;;;;;;17.01;62.23;99216.88;6946854;28;20287;-79
2022/10/13 06:47:56;;;;;;;24.10;15.03;;;;;;;17.32;61.27;99213.78;6951301;28;20349;-79
2022/10/13 06:51:19;;;;;;;20.37;14.60;;;;;;;17.48;60.60;99211.22;6951671;28;20307;-74
2022/10/13 06:54:40;;;;;;;16.47;14.27;;;;;;;17.19;61.19;99211.31;6952243;28;20692;-79
2022/10/13 06:58:02;;;;;;;23.17;14.90;;;;;;;17.53;61.06;99216.78;6951663;28;20296;-79
2022/10/13 07:01:23;;;;;;;22.93;14.53;;;;;;;17.58;60.62;99213.31;6951850;28;20345;-78
2022/10/13 07:04:47;;;;;;;23.83;14.93;;;;;;;17.41;60.71;99198.78;6950894;28;20218;-79
2022/10/13 07:08:10;;;;;;;19.97;14.63;;;;;;;17.46;60.62;99163.44;6949705;28;20208;-79
2022/10/13 07:11:31;;;;;;;21.40;15.00;;;;;;;17.51;60.53;99199.00;6952660;28;20321;-79
2022/10/13 07:14:53;;;;;;;18.70;13.87;;;;;;;17.55;61.25;99211.91;6946250;28;20595;-79
2022/10/13 07:18:14;;;;;;;20.93;14.43;;;;;;;17.78;60.95;99189.19;6951514;28;20358;-79
2022/10/13 07:21:36;;;;;;;19.80;12.90;;;;;;;17.99;60.74;99194.81;6951453;28;20254;-79
2022/10/13 07:24:58;;;;;;;19.50;13.80;;;;;;;17.90;61.17;99203.63;6950357;28;20244;-79
2022/10/13 07:28:20;;;;;;;16.43;13.23;;;;;;;18.03;60.22;99181.50;6950746;28;20582;-79
2022/10/13 07:31:42;;;;;;;23.67;14.20;;;;;;;18.26;60.53;99209.53;6934414;28;20264;-78
2022/10/13 07:35:05;;;;;;;17.23;14.13;;;;;;;18.39;59.87;99190.16;6941501;28;20703;-79
2022/10/13 07:38:26;;;;;;;19.57;15.13;;;;;;;18.58;59.17;99204.44;6947703;28;20245;-79
2022/10/13 07:41:49;;;;;;;22.90;12.40;;;;;;;18.86;58.17;99210.66;6950873;28;20244;-79
2022/10/13 07:45:11;;;;;;;17.47;12.53;;;;;;;18.95;57.82;99211.06;6951365;28;20727;-79
2022/10/13 07:48:33;;;;;;;21.60;10.57;;;;;;;18.96;57.15;99199.03;6938723;28;20203;-80
2022/10/13 07:51:54;;;;;;;14.00;9.30;;;;;;;19.30;56.18;99192.50;6924321;28;20240;-79
2022/10/13 07:55:16;;;;;;;15.43;10.17;;;;;;;19.46;54.83;99186.19;6928606;28;20324;-79
2022/10/13 07:58:41;;;;;;;12.63;9.00;;;;;;;19.30;55.00;99176.09;6950027;28;20710;-79
2022/10/13 08:02:02;;;;;;;14.00;9.20;;;;;;;19.41;54.94;99192.38;6950000;28;20217;-78
2022/10/13 08:05:24;;;;;;;10.03;8.33;;;;;;;19.58;54.17;99173.22;6934894;28;20288;-80
2022/10/13 08:08:45;;;;;;;12.90;9.23;;;;;;;19.92;53.88;99193.91;6948505;28;20310;-79
2022/10/13 08:12:07;;;;;;;10.87;9.03;;;;;;;19.89;53.36;99178.81;6949730;28;20245;-80
2022/10/13 08:15:30;;;;;;;10.77;8.63;;;;;;;19.71;53.10;99183.75;6950542;28;20233;-79
2022/10/13 08:18:51;;;;;;;16.33;8.53;;;;;;;19.31;54.31;99136.72;6949673;28;20234;-79
2022/10/13 08:22:13;;;;;;;16.07;9.27;;;;;;;19.76;54.05;99179.16;6958161;28;20207;-79
2022/10/13 08:25:37;;;;;;;13.17;9.17;;;;;;;19.89;53.72;99170.59;6922601;28;20204;-79
2022/10/13 08:28:58;;;;;;;12.87;8.60;;;;;;;19.97;54.25;99169.28;6922112;28;20242;-80
2022/10/13 08:32:21;;;;;;;14.63;9.07;;;;;;;20.00;53.94;99152.38;6923883;28;20294;-79
2022/10/13 08:35:43;;;;;;;11.70;8.73;;;;;;;20.18;52.81;99166.59;6960422;28;20284;-80
2022/10/13 08:39:04;;;;;;;10.17;8.73;;;;;;;20.09;52.60;99162.63;6962209;28;20320;-79
2022/10/13 08:42:26;;;;;;;14.57;9.90;;;;;;;19.84;53.19;99156.00;6949627;28;20341;-79
2022/10/13 08:45:50;;;;;;;13.07;8.60;;;;;;;19.33;54.79;99154.53;6949092;28;20241;-80
2022/10/13 08:49:14;;;;;;;13.97;9.97;;;;;;;19.27;54.56;99143.81;6948147;28;20322;-79
2022/10/13 08:52:46;;;;;;;15.83;9.60;;;;;;;19.75;53.57;99143.88;6949293;28;20213;-79
2022/10/13 08:56:09;;;;;;;11.03;8.73;;;;;;;19.99;53.03;99139.78;6948298;28;20215;-79
2022/10/13 08:59:32;;;;;;;11.77;8.27;;;;;;;20.28;53.49;99124.78;6948331;28;20227;-79
2022/10/13 09:02:53;;;;;;;11.90;8.00;;;;;;;21.14;50.58;99144.41;6944924;28;20683;-79
2022/10/13 09:06:20;;;;;;;14.27;9.10;;;;;;;19.69;53.20;99161.31;6947098;28;20262;-77
2022/10/13 09:09:42;;;;;;;13.63;8.17;;;;;;;20.27;53.34;99137.63;6947014;28;20223;-80
2022/10/13 09:13:04;;;;;;;12.87;8.63;;;;;;;20.80;50.76;99137.56;6949351;28;20621;-80
2022/10/13 09:16:30;;;;;;;11.93;7.63;;;;;;;20.92;51.16;99146.44;6950082;28;20346;-78
2022/10/13 09:19:59;;;;;;;14.10;8.30;;;;;;;20.78;50.70;99128.78;6948398;28;20231;-79
2022/10/13 09:23:22;;;;;;;12.00;7.93;;;;;;;21.14;50.30;99133.44;6949786;28;20244;-79
2022/10/13 09:26:45;;;;;;;10.03;6.87;;;;;;;20.95;50.42;99124.00;6950612;28;20298;-80
2022/10/13 09:30:31;;;;;;;10.33;6.90;;;;;;;21.28;50.30;99118.16;6949577;28;20258;-80
2022/10/13 09:34:00;;;;;;;9.03;7.27;;;;;;;21.21;50.62;99134.03;6922234;28;20215;-79
2022/10/13 09:37:23;;;;;;;8.67;6.70;;;;;;;21.13;51.14;99150.16;6922351;28;20286;-79
2022/10/13 09:40:57;;;;;;;9.27;7.50;;;;;;;21.14;50.25;99153.44;6950726;28;20651;-80
2022/10/13 09:44:27;;;;;;;10.67;7.33;;;;;;;21.42;49.70;99157.75;6950139;28;20286;-80
2022/10/13 09:47:50;;;;;;;8.70;6.87;;;;;;;21.59;49.85;99134.50;6947011;28;20286;-80
2022/10/13 09:51:36;;;;;;;12.00;6.70;;;;;;;21.55;49.41;99125.13;6946639;28;20277;-79
2022/10/13 09:54:59;;;;;;;8.07;6.10;;;;;;;21.86;48.94;99142.59;6948003;28;20288;-80
2022/10/13 09:58:25;;;;;;;8.37;6.90;;;;;;;20.76;50.38;99146.56;6947435;28;20207;-80
2022/10/13 10:01:48;;;;;;;7.67;6.43;;;;;;;21.47;50.09;99127.56;6947215;28;20225;-79
2022/10/13 10:05:19;;;;;;;10.33;7.03;;;;;;;21.53;50.27;99132.81;6948691;28;20206;-79
2022/10/13 10:08:47;;;;;;;10.17;5.90;;;;;;;21.93;48.19;99130.28;6947790;28;20290;-80
2022/10/13 10:12:15;;;;;;;10.27;6.20;;;;;;;22.25;47.58;99152.06;6948092;28;20252;-79
2022/10/13 10:15:48;;;;;;;11.97;8.13;;;;;;;21.87;49.02;99127.75;6948036;28;20289;-79
2022/10/13 10:19:13;;;;;;;9.97;7.73;;;;;;;21.56;50.68;99125.97;6937912;28;20725;-79
2022/10/13 10:22:38;;;;;;;11.37;6.43;;;;;;;21.36;50.12;99145.09;6920504;28;20192;-79
2022/10/13 10:26:01;;;;;;;10.50;6.40;;;;;;;21.65;49.01;99122.44;6920746;28;20211;-79
2022/10/13 10:29:35;;;;;;;9.77;6.30;;;;;;;22.38;47.39;99138.63;6918129;28;20318;-79
2022/10/13 10:33:03;;;;;;;14.97;7.17;;;;;;;21.88;48.49;99113.78;6918567;28;20298;-79
2022/10/13 10:36:31;;;;;;;9.87;7.10;;;;;;;22.18;48.00;99119.34;6918591;28;20234;-80
2022/10/13 10:40:03;;;;;;;10.90;6.30;;;;;;;22.09;48.15;99110.00;6940721;28;20223;-80
2022/10/13 10:43:43;;;;;;;10.13;6.77;;;;;;;22.48;46.98;99116.66;6944823;28;20196;-79
2022/10/13 10:47:07;;;;;;;8.07;5.63;;;;;;;21.95;48.14;99119.84;6945339;28;20192;-80
2022/10/13 10:50:32;;;;;;;7.20;5.10;;;;;;;21.88;48.19;99112.94;6945804;28;20310;-80
2022/10/13 10:54:00;;;;;;;8.23;5.63;;;;;;;22.17;47.64;99108.63;6946681;28;20234;-79
2022/10/13 10:57:26;;;;;;;8.93;5.83;;;;;;;22.08;47.04;99107.50;6946419;28;20614;-79
2022/10/13 11:00:53;;;;;;;8.50;6.67;;;;;;;21.57;47.69;99065.34;6945778;28;20710;-79
2022/10/13 11:04:34;;;;;;;8.03;5.63;;;;;;;21.88;47.34;99101.97;6946989;28;20290;-79
2022/10/13 11:08:00;;;;;;;9.03;5.33;;;;;;;21.81;48.09;99096.75;6946568;28;20195;-79
2022/10/13 11:11:38;;;;;;;8.57;5.70;;;;;;;21.45;49.22;99080.38;6948656;28;20369;-79
2022/10/13 11:15:10;;;;;;;8.83;5.87;;;;;;;22.03;47.88;99075.38;6950390;28;20286;-79
2022/10/13 11:19:06;;;;;;;6.80;5.70;;;;;;;21.75;48.08;99072.28;6951162;28;20191;-79
2022/10/13 11:22:29;;;;;;;10.13;6.33;;;;;;;21.98;48.22;99055.31;6951516;28;20751;-79
2022/10/13 11:26:19;;;;;;;9.03;5.50;;;;;;;22.64;46.41;99066.09;6951238;28;20298;-79
2022/10/13 11:29:59;;;;;;;11.27;5.77;;;;;;;22.54;45.58;99043.28;6950420;28;20365;-78
2022/10/13 11:33:35;;;;;;;10.37;6.57;;;;;;;22.30;46.43;99047.66;6950996;28;20270;-79
2022/10/13 11:36:58;;;;;;;8.97;6.07;;;;;;;22.15;47.77;99053.97;6951428;28;20274;-80
2022/10/13 11:40:23;;;;;;;9.30;6.13;;;;;;;22.41;47.75;99052.88;6951365;28;20227;-79
2022/10/13 11:43:51;;;;;;;14.53;5.90;;;;;;;22.21;47.87;99049.28;6950611;28;20195;-79
2022/10/13 11:47:26;;;;;;;7.73;6.10;;;;;;;22.38;48.07;99025.97;6948101;28;20202;-80
2022/10/13 11:50:50;;;;;;;7.33;5.57;;;;;;;22.62;47.12;99034.47;6949167;28;20372;-79
2022/10/13 11:54:19;;;;;;;6.87;5.40;;;;;;;22.68;46.88;99023.22;6949176;28;20277;-79
2022/10/13 11:57:41;;;;;;;9.03;6.07;;;;;;;22.72;46.91;99018.78;6948439;28;20254;-79
2022/10/13 12:01:06;;;;;;;10.50;5.97;;;;;;;22.82;46.90;99021.50;6950599;28;20327;-79
2022/10/13 12:04:28;;;;;;;10.03;5.80;;;;;;;22.79;47.13;99019.34;6950318;28;20211;-80
2022/10/13 12:07:50;;;;;;;7.87;5.67;;;;;;;22.63;46.93;99012.22;6949934;28;20246;-79
2022/10/13 12:11:23;;;;;;;10.00;5.87;;;;;;;22.38;47.12;99014.13;6948706;28;20323;-80
2022/10/13 12:14:46;;;;;;;12.03;5.80;;;;;;;21.56;49.75;99008.81;6950618;28;20250;-79
2022/10/13 12:18:24;;;;;;;8.37;5.80;;;;;;;21.77;48.80;98993.25;6953843;28;20222;-79
2022/10/13 12:21:50;;;;;;;7.53;5.67;;;;;;;22.16;48.75;98997.94;6955531;28;20202;-79
2022/10/13 12:25:17;;;;;;;6.37;5.20;;;;;;;22.42;49.00;98994.06;6954949;28;20184;-79
2022/10/13 12:28:50;;;;;;;10.93;5.40;;;;;;;22.49;48.33;98989.13;6951354;28;20196;-79
2022/10/13 12:32:19;;;;;;;8.20;5.33;;;;;;;22.72;47.73;98985.78;6953350;28;20217;-79
2022/10/13 12:35:41;;;;;;;6.53;5.57;;;;;;;22.09;47.74;98958.94;6958670;28;20303;-79
2022/10/13 12:39:06;;;;;;;10.23;5.70;;;;;;;22.36;48.58;98970.44;6936114;28;20310;-79
2022/10/13 12:42:30;;;;;;;8.37;5.97;;;;;;;22.18;48.26;98983.94;6925237;28;20302;-79
2022/10/13 12:45:52;;;;;;;7.43;5.43;;;;;;;22.32;48.71;98960.28;6926207;28;20299;-79
2022/10/13 12:49:16;;;;;;;7.67;5.20;;;;;;;23.04;47.13;98961.50;6925789;28;20228;-79
2022/10/13 12:52:39;;;;;;;8.13;5.00;;;;;;;23.65;45.88;98951.81;6924730;28;20276;-79
2022/10/13 12:56:17;;;;;;;11.97;4.83;;;;;;;24.13;44.50;98945.41;6924633;28;20771;-79
2022/10/13 12:59:41;;;;;;;8.27;5.13;;;;;;;22.56;48.13;98931.97;6923923;28;20846;-79
2022/10/13 13:03:05;;;;;;;11.30;5.23;;;;;;;23.18;45.90;98913.03;6923451;28;20704;-79
2022/10/13 13:06:36;;;;;;;8.60;4.77;;;;;;;23.63;45.88;98942.19;6925966;28;20251;-79
2022/10/13 13:10:15;;;;;;;8.23;5.03;;;;;;;23.02;46.12;98924.38;6923087;28;20224;-79
2022/10/13 13:13:37;;;;;;;6.90;4.80;;;;;;;23.27;46.37;98918.78;6921846;28;20217;-79
2022/10/13 13:17:03;;;;;;;7.73;4.87;;;;;;;23.80;45.11;98928.88;6924005;28;20238;-79
2022/10/13 13:20:27;;;;;;;7.23;4.97;;;;;;;23.57;44.74;98900.13;6923068;28;20314;-79
2022/10/13 13:23:49;;;;;;;7.03;4.63;;;;;;;23.68;45.64;98933.91;6921511;28;20230;-79
2022/10/13 13:27:18;;;;;;;6.90;4.90;;;;;;;23.77;45.70;98945.97;6924046;28;20279;-79
2022/10/13 13:30:39;;;;;;;6.27;5.00;;;;;;;23.77;46.22;98938.53;6922519;28;20323;-79
2022/10/13 13:34:01;;;;;;;9.13;5.23;;;;;;;23.93;45.27;98914.47;6922533;28;20292;-79
2022/10/13 13:37:26;;;;;;;8.10;4.83;;;;;;;23.80;45.46;98929.69;6921311;28;20843;-79
2022/10/13 13:40:47;;;;;;;6.23;4.60;;;;;;;23.60;45.66;98904.25;6922295;28;20259;-79
2022/10/13 13:44:10;;;;;;;9.20;5.50;;;;;;;23.29;46.30;98892.63;6922749;28;20234;-79
2022/10/13 13:47:32;;;;;;;10.20;5.00;;;;;;;23.44;46.52;98905.47;6921866;28;20227;-79
2022/10/13 13:50:53;;;;;;;7.07;4.80;;;;;;;23.57;46.86;98927.66;6922188;28;20702;-79
2022/10/13 13:54:15;;;;;;;6.20;4.93;;;;;;;23.76;45.93;98928.63;6922400;28;20342;-79
2022/10/13 13:57:36;;;;;;;7.57;5.50;;;;;;;23.47;46.15;98927.72;6921917;28;20293;-80
2022/10/13 14:01:00;;;;;;;7.17;4.60;;;;;;;23.02;47.43;98902.38;6922816;28;20285;-79
2022/10/13 14:04:21;;;;;;;6.23;5.20;;;;;;;23.34;46.88;98925.59;6922431;28;20243;-79
2022/10/13 14:07:43;;;;;;;9.77;5.17;;;;;;;23.77;46.49;98921.19;6921481;28;20213;-80
2022/10/13 14:11:06;;;;;;;10.00;5.27;;;;;;;23.74;46.25;98914.34;6922804;28;20232;-79
2022/10/13 14:14:29;;;;;;;9.80;5.30;;;;;;;23.86;45.75;98928.56;6922574;28;20271;-79
2022/10/13 14:17:53;;;;;;;9.87;5.77;;;;;;;23.69;46.00;98925.38;6922118;28;20219;-79
2022/10/13 14:21:14;;;;;;;7.17;5.33;;;;;;;23.62;46.00;98896.53;6924353;28;20292;-79
2022/10/13 14:24:36;;;;;;;9.47;5.47;;;;;;;23.31;46.50;98873.88;6927740;28;20206;-79
2022/10/13 14:27:57;;;;;;;9.47;5.53;;;;;;;23.56;46.98;98914.19;6919327;28;20326;-79
2022/10/13 14:31:19;;;;;;;9.23;5.40;;;;;;;23.56;46.79;98905.91;6920237;28;20394;-79
2022/10/13 14:34:42;;;;;;;11.13;5.53;;;;;;;23.51;47.15;98894.94;6919847;28;20256;-80
2022/10/13 14:38:03;;;;;;;8.90;5.10;;;;;;;23.57;47.07;98900.13;6920025;28;20356;-79
2022/10/13 14:41:25;;;;;;;8.47;5.63;;;;;;;23.55;47.49;98904.28;6922946;28;20361;-79
2022/10/13 14:44:47;;;;;;;9.00;5.60;;;;;;;23.60;47.31;98907.00;6920582;28;20268;-79
2022/10/13 14:48:09;;;;;;;7.83;5.73;;;;;;;23.42;48.07;98896.69;6920707;28;20665;-79
2022/10/13 14:51:33;;;;;;;7.90;5.13;;;;;;;23.26;48.17;98893.16;6925239;28;20246;-79
2022/10/13 14:54:54;;;;;;;5.93;5.10;;;;;;;23.33;48.08;98906.63;6924502;28;20283;-79
2022/10/13 14:58:16;;;;;;;7.77;5.40;;;;;;;23.26;48.34;98895.13;6923815;28;20243;-79
2022/10/13 15:01:38;;;;;;;9.20;5.73;;;;;;;23.14;48.29;98898.16;6925344;28;20275;-79
2022/10/13 15:04:59;;;;;;;8.93;5.73;;;;;;;23.09;49.03;98887.22;6950416;28;20749;-79
2022/10/13 15:08:22;;;;;;;9.70;5.67;;;;;;;22.83;49.08;98863.69;6952072;28;20250;-79
2022/10/13 15:11:45;;;;;;;8.80;6.13;;;;;;;22.49;50.31;98897.63;6952392;28;20722;-80
2022/10/13 15:15:07;;;;;;;13.20;5.80;;;;;;;22.46;50.01;98874.28;6952686;28;20231;-79
2022/10/13 15:18:49;;;;;;;10.63;5.80;;;;;;;22.63;50.01;98899.53;6957398;28;20264;-79
2022/10/13 15:22:11;;;;;;;9.50;5.33;;;;;;;22.63;50.15;98882.19;6951557;28;20286;-78
2022/10/13 15:25:33;;;;;;;8.67;5.97;;;;;;;22.68;49.64;98885.75;6951986;28;20223;-78
2022/10/13 15:28:55;;;;;;;9.73;5.60;;;;;;;22.79;49.47;98868.13;6952198;28;20232;-79
2022/10/13 15:32:18;;;;;;;6.63;5.30;;;;;;;22.75;50.10;98878.03;6952868;28;20747;-79
2022/10/13 15:35:40;;;;;;;7.50;5.37;;;;;;;22.50;51.88;98874.56;6951620;28;20298;-80
2022/10/13 15:39:01;;;;;;;8.83;6.33;;;;;;;21.99;53.35;98871.06;6954876;28;20284;-79
2022/10/13 15:42:24;;;;;;;9.27;6.53;;;;;;;21.89;53.32;98873.00;6953029;28;20351;-79
2022/10/13 15:45:53;;;;;;;14.40;7.73;;;;;;;21.87;55.01;98905.38;6949181;28;20195;-79
2022/10/13 15:49:14;;;;;;;9.27;6.43;;;;;;;21.91;55.13;98890.03;6950572;28;20230;-79